sensor_id;sensor_type;location;lat;lon;timestamp;temperature;humidity
44767;DHT22;30487;48.716;9.272;2023-12-29T00:02:09;9.20;99.90
44767;DHT22;30487;48.716;9.272;2023-12-29T00:04:34;9.20;99.90
44767;DHT22;30487;48.716;9.272;2023-12-29T00:07:01;9.30;99.90
44767;DHT22;30487;48.716;9.272;2023-12-29T00:09:28;9.20;99.90
44767;DHT22;30487;48.716;9.272;2023-12-29T00:11:53;9.20;99.90
44767;DHT22;30487;48.716;9.272;2023-12-29T00:14:20;9.30;99.90
44767;DHT22;30487;48.716;9.272;2023-12-29T00:16:45;9.30;99.90
44767;DHT22;30487;48.716;9.272;2023-12-29T00:19:12;9.30;99.90
44767;DHT22;30487;48.716;9.272;2023-12-29T00:21:37;9.30;99.90
44767;DHT22;30487;48.716;9.272;2023-12-29T00:24:04;9.30;99.90
44767;DHT22;30487;48.716;9.272;2023-12-29T00:26:30;9.30;99.90
44767;DHT22;30487;48.716;9.272;2023-12-29T00:28:55;9.20;99.90
44767;DHT22;30487;48.716;9.272;2023-12-29T00:31:21;9.30;99.90
44767;DHT22;30487;48.716;9.272;2023-12-29T00:33:47;9.30;99.90
44767;DHT22;30487;48.716;9.272;2023-12-29T00:36:17;9.30;99.90
44767;DHT22;30487;48.716;9.272;2023-12-29T00:38:43;9.30;99.90
44767;DHT22;30487;48.716;9.272;2023-12-29T00:41:08;9.30;99.90
44767;DHT22;30487;48.716;9.272;2023-12-29T00:43:35;9.30;99.90
44767;DHT22;30487;48.716;9.272;2023-12-29T00:46:04;9.30;99.90
44767;DHT22;30487;48.716;9.272;2023-12-29T00:48:33;9.30;99.90
44767;DHT22;30487;48.716;9.272;2023-12-29T00:51:00;9.30;99.90
44767;DHT22;30487;48.716;9.272;2023-12-29T00:53:26;9.30;99.90
44767;DHT22;30487;48.716;9.272;2023-12-29T00:55:52;9.40;99.90
44767;DHT22;30487;48.716;9.272;2023-12-29T00:58:17;9.30;99.90
44767;DHT22;30487;48.716;9.272;2023-12-29T01:00:43;9.40;99.90
44767;DHT22;30487;48.716;9.272;2023-12-29T01:03:08;9.40;99.90
44767;DHT22;30487;48.716;9.272;2023-12-29T01:05:34;9.40;99.90
44767;DHT22;30487;48.716;9.272;2023-12-29T01:07:59;9.40;99.90
44767;DHT22;30487;48.716;9.272;2023-12-29T01:10:25;9.40;99.90
44767;DHT22;30487;48.716;9.272;2023-12-29T01:12:50;9.40;99.90
44767;DHT22;30487;48.716;9.272;2023-12-29T01:15:16;9.40;99.90
44767;DHT22;30487;48.716;9.272;2023-12-29T01:17:41;9.40;99.90
44767;DHT22;30487;48.716;9.272;2023-12-29T01:20:07;9.40;99.90
44767;DHT22;30487;48.716;9.272;2023-12-29T01:22:33;9.40;99.90
44767;DHT22;30487;48.716;9.272;2023-12-29T01:24:59;9.40;99.90
44767;DHT22;30487;48.716;9.272;2023-12-29T01:27:25;9.40;99.90
44767;DHT22;30487;48.716;9.272;2023-12-29T01:29:51;9.50;99.90
44767;DHT22;30487;48.716;9.272;2023-12-29T01:32:18;9.40;99.90
44767;DHT22;30487;48.716;9.272;2023-12-29T01:34:44;9.40;99.90
44767;DHT22;30487;48.716;9.272;2023-12-29T01:37:09;9.40;99.90
44767;DHT22;30487;48.716;9.272;2023-12-29T01:39:35;9.40;99.90
44767;DHT22;30487;48.716;9.272;2023-12-29T01:42:00;9.40;99.90
44767;DHT22;30487;48.716;9.272;2023-12-29T01:44:26;9.40;99.90
44767;DHT22;30487;48.716;9.272;2023-12-29T01:46:55;9.40;99.90
44767;DHT22;30487;48.716;9.272;2023-12-29T01:49:22;9.50;99.90
44767;DHT22;30487;48.716;9.272;2023-12-29T01:51:56;9.50;99.90
44767;DHT22;30487;48.716;9.272;2023-12-29T01:54:25;9.50;99.90
44767;DHT22;30487;48.716;9.272;2023-12-29T01:56:52;9.50;99.90
44767;DHT22;30487;48.716;9.272;2023-12-29T01:59:20;9.50;99.90
44767;DHT22;30487;48.716;9.272;2023-12-29T02:01:46;9.40;99.90
44767;DHT22;30487;48.716;9.272;2023-12-29T02:04:13;9.40;99.90
44767;DHT22;30487;48.716;9.272;2023-12-29T02:06:39;9.40;99.90
44767;DHT22;30487;48.716;9.272;2023-12-29T02:09:05;9.40;99.90
44767;DHT22;30487;48.716;9.272;2023-12-29T02:11:31;9.40;99.90
44767;DHT22;30487;48.716;9.272;2023-12-29T02:13:58;9.40;99.90
44767;DHT22;30487;48.716;9.272;2023-12-29T02:21:49;9.40;99.90
44767;DHT22;30487;48.716;9.272;2023-12-29T02:24:15;9.40;99.90
44767;DHT22;30487;48.716;9.272;2023-12-29T02:26:44;9.40;99.90
44767;DHT22;30487;48.716;9.272;2023-12-29T02:29:14;9.40;99.90
44767;DHT22;30487;48.716;9.272;2023-12-29T02:31:44;9.40;99.90
44767;DHT22;30487;48.716;9.272;2023-12-29T02:34:12;9.40;99.90
44767;DHT22;30487;48.716;9.272;2023-12-29T02:36:40;9.40;99.90
44767;DHT22;30487;48.716;9.272;2023-12-29T02:39:09;9.30;99.90
44767;DHT22;30487;48.716;9.272;2023-12-29T02:41:39;9.30;99.90
44767;DHT22;30487;48.716;9.272;2023-12-29T02:44:04;9.30;99.90
44767;DHT22;30487;48.716;9.272;2023-12-29T02:46:30;9.30;99.90
44767;DHT22;30487;48.716;9.272;2023-12-29T02:48:56;9.40;99.90
44767;DHT22;30487;48.716;9.272;2023-12-29T02:51:21;9.40;99.90
44767;DHT22;30487;48.716;9.272;2023-12-29T02:53:47;9.40;99.90
44767;DHT22;30487;48.716;9.272;2023-12-29T02:56:14;9.40;99.90
44767;DHT22;30487;48.716;9.272;2023-12-29T02:58:39;9.40;99.90
44767;DHT22;30487;48.716;9.272;2023-12-29T03:01:05;9.40;99.90
44767;DHT22;30487;48.716;9.272;2023-12-29T03:03:31;9.40;99.90
44767;DHT22;30487;48.716;9.272;2023-12-29T03:05:56;9.50;99.90
44767;DHT22;30487;48.716;9.272;2023-12-29T03:08:22;9.50;99.90
44767;DHT22;30487;48.716;9.272;2023-12-29T03:10:47;9.50;99.90
44767;DHT22;30487;48.716;9.272;2023-12-29T03:13:13;9.40;99.90
44767;DHT22;30487;48.716;9.272;2023-12-29T03:15:38;9.40;99.90
44767;DHT22;30487;48.716;9.272;2023-12-29T03:18:04;9.40;99.90
44767;DHT22;30487;48.716;9.272;2023-12-29T03:20:29;9.40;99.90
44767;DHT22;30487;48.716;9.272;2023-12-29T03:22:55;9.40;99.90
44767;DHT22;30487;48.716;9.272;2023-12-29T03:25:21;9.40;99.90
44767;DHT22;30487;48.716;9.272;2023-12-29T03:27:46;9.40;99.90
44767;DHT22;30487;48.716;9.272;2023-12-29T03:30:12;9.40;99.90
44767;DHT22;30487;48.716;9.272;2023-12-29T03:32:37;9.40;99.90
44767;DHT22;30487;48.716;9.272;2023-12-29T03:35:03;9.40;99.90
44767;DHT22;30487;48.716;9.272;2023-12-29T03:37:29;9.40;99.90
44767;DHT22;30487;48.716;9.272;2023-12-29T03:39:55;9.40;99.90
44767;DHT22;30487;48.716;9.272;2023-12-29T03:42:20;9.40;99.90
44767;DHT22;30487;48.716;9.272;2023-12-29T03:44:46;9.40;99.90
44767;DHT22;30487;48.716;9.272;2023-12-29T03:47:11;9.40;99.90
44767;DHT22;30487;48.716;9.272;2023-12-29T03:49:37;9.40;99.90
44767;DHT22;30487;48.716;9.272;2023-12-29T03:52:02;9.40;99.90
44767;DHT22;30487;48.716;9.272;2023-12-29T03:54:28;9.30;99.90
44767;DHT22;30487;48.716;9.272;2023-12-29T03:56:54;9.30;99.90
44767;DHT22;30487;48.716;9.272;2023-12-29T03:59:19;9.30;99.90
44767;DHT22;30487;48.716;9.272;2023-12-29T04:01:45;9.30;99.90
44767;DHT22;30487;48.716;9.272;2023-12-29T04:04:10;9.20;99.90
44767;DHT22;30487;48.716;9.272;2023-12-29T04:06:36;9.20;99.90
44767;DHT22;30487;48.716;9.272;2023-12-29T04:09:01;9.10;99.90
44767;DHT22;30487;48.716;9.272;2023-12-29T04:11:27;9.10;99.90
44767;DHT22;30487;48.716;9.272;2023-12-29T04:13:55;9.10;99.90
44767;DHT22;30487;48.716;9.272;2023-12-29T04:16:21;9.10;99.90
44767;DHT22;30487;48.716;9.272;2023-12-29T04:18:46;9.10;99.90
44767;DHT22;30487;48.716;9.272;2023-12-29T04:21:15;9.00;99.90
44767;DHT22;30487;48.716;9.272;2023-12-29T04:23:41;9.00;99.90
44767;DHT22;30487;48.716;9.272;2023-12-29T04:26:09;9.00;99.90
44767;DHT22;30487;48.716;9.272;2023-12-29T04:28:35;9.00;99.90
44767;DHT22;30487;48.716;9.272;2023-12-29T04:31:01;8.90;99.90
44767;DHT22;30487;48.716;9.272;2023-12-29T04:33:26;8.90;99.90
44767;DHT22;30487;48.716;9.272;2023-12-29T04:35:52;8.90;99.90
44767;DHT22;30487;48.716;9.272;2023-12-29T04:38:17;8.90;99.90
44767;DHT22;30487;48.716;9.272;2023-12-29T04:40:46;8.80;99.90
44767;DHT22;30487;48.716;9.272;2023-12-29T04:43:12;8.90;99.90
44767;DHT22;30487;48.716;9.272;2023-12-29T04:45:38;8.80;99.90
44767;DHT22;30487;48.716;9.272;2023-12-29T04:48:04;8.80;99.90
44767;DHT22;30487;48.716;9.272;2023-12-29T04:50:29;8.80;99.90
44767;DHT22;30487;48.716;9.272;2023-12-29T04:52:55;8.80;99.90
44767;DHT22;30487;48.716;9.272;2023-12-29T04:55:20;8.80;99.90
44767;DHT22;30487;48.716;9.272;2023-12-29T04:57:46;8.70;99.90
44767;DHT22;30487;48.716;9.272;2023-12-29T05:00:12;8.70;99.90
44767;DHT22;30487;48.716;9.272;2023-12-29T05:02:38;8.70;99.90
44767;DHT22;30487;48.716;9.272;2023-12-29T05:05:04;8.70;99.90
44767;DHT22;30487;48.716;9.272;2023-12-29T05:07:30;8.80;99.90
44767;DHT22;30487;48.716;9.272;2023-12-29T05:09:55;8.70;99.90
44767;DHT22;30487;48.716;9.272;2023-12-29T05:12:21;8.80;99.90
44767;DHT22;30487;48.716;9.272;2023-12-29T05:14:46;8.80;99.90
44767;DHT22;30487;48.716;9.272;2023-12-29T05:17:12;8.80;99.90
44767;DHT22;30487;48.716;9.272;2023-12-29T05:19:37;8.80;99.90
44767;DHT22;30487;48.716;9.272;2023-12-29T05:22:03;8.80;99.90
44767;DHT22;30487;48.716;9.272;2023-12-29T05:24:28;8.80;99.90
44767;DHT22;30487;48.716;9.272;2023-12-29T05:26:54;8.80;99.90
44767;DHT22;30487;48.716;9.272;2023-12-29T05:29:20;8.70;99.90
44767;DHT22;30487;48.716;9.272;2023-12-29T05:31:45;8.70;99.90
44767;DHT22;30487;48.716;9.272;2023-12-29T05:34:11;8.70;99.90
44767;DHT22;30487;48.716;9.272;2023-12-29T05:36:36;8.70;99.90
44767;DHT22;30487;48.716;9.272;2023-12-29T05:39:06;8.70;99.90
44767;DHT22;30487;48.716;9.272;2023-12-29T05:41:31;8.80;99.90
44767;DHT22;30487;48.716;9.272;2023-12-29T05:43:57;8.80;99.90
44767;DHT22;30487;48.716;9.272;2023-12-29T05:46:26;8.80;99.90
44767;DHT22;30487;48.716;9.272;2023-12-29T05:48:52;8.70;99.90
44767;DHT22;30487;48.716;9.272;2023-12-29T05:51:18;8.70;99.90
44767;DHT22;30487;48.716;9.272;2023-12-29T05:53:43;8.70;99.90
44767;DHT22;30487;48.716;9.272;2023-12-29T05:56:12;8.70;99.90
44767;DHT22;30487;48.716;9.272;2023-12-29T05:58:39;8.70;99.90
44767;DHT22;30487;48.716;9.272;2023-12-29T06:01:05;8.70;99.90
44767;DHT22;30487;48.716;9.272;2023-12-29T06:03:31;8.70;99.90
44767;DHT22;30487;48.716;9.272;2023-12-29T06:05:56;8.80;99.90
44767;DHT22;30487;48.716;9.272;2023-12-29T06:08:22;8.70;99.90
44767;DHT22;30487;48.716;9.272;2023-12-29T06:10:47;8.70;99.90
44767;DHT22;30487;48.716;9.272;2023-12-29T06:13:13;8.70;99.90
44767;DHT22;30487;48.716;9.272;2023-12-29T06:15:40;8.80;99.90
44767;DHT22;30487;48.716;9.272;2023-12-29T06:18:05;8.80;99.90
44767;DHT22;30487;48.716;9.272;2023-12-29T06:20:31;8.80;99.90
44767;DHT22;30487;48.716;9.272;2023-12-29T06:22:56;8.80;99.90
44767;DHT22;30487;48.716;9.272;2023-12-29T06:25:22;8.90;99.90
44767;DHT22;30487;48.716;9.272;2023-12-29T06:27:48;8.90;99.90
44767;DHT22;30487;48.716;9.272;2023-12-29T06:30:14;8.90;99.90
44767;DHT22;30487;48.716;9.272;2023-12-29T06:32:40;8.90;99.90
44767;DHT22;30487;48.716;9.272;2023-12-29T06:35:06;8.90;99.90
44767;DHT22;30487;48.716;9.272;2023-12-29T06:37:32;8.90;99.90
44767;DHT22;30487;48.716;9.272;2023-12-29T06:39:58;8.90;99.90
44767;DHT22;30487;48.716;9.272;2023-12-29T06:42:24;8.80;99.90
44767;DHT22;30487;48.716;9.272;2023-12-29T06:44:49;8.90;99.90
44767;DHT22;30487;48.716;9.272;2023-12-29T06:47:15;8.90;99.90
44767;DHT22;30487;48.716;9.272;2023-12-29T06:49:41;8.90;99.90
44767;DHT22;30487;48.716;9.272;2023-12-29T06:52:06;8.80;99.90
44767;DHT22;30487;48.716;9.272;2023-12-29T06:54:33;8.80;99.90
44767;DHT22;30487;48.716;9.272;2023-12-29T06:56:59;8.90;99.90
44767;DHT22;30487;48.716;9.272;2023-12-29T06:59:25;8.80;99.90
44767;DHT22;30487;48.716;9.272;2023-12-29T07:01:51;8.90;99.90
44767;DHT22;30487;48.716;9.272;2023-12-29T07:04:16;8.90;99.90
44767;DHT22;30487;48.716;9.272;2023-12-29T07:06:42;8.90;99.90
44767;DHT22;30487;48.716;9.272;2023-12-29T07:09:08;8.90;99.90
44767;DHT22;30487;48.716;9.272;2023-12-29T07:11:35;8.90;99.90
44767;DHT22;30487;48.716;9.272;2023-12-29T07:14:01;8.90;99.90
44767;DHT22;30487;48.716;9.272;2023-12-29T07:16:26;8.90;99.90
44767;DHT22;30487;48.716;9.272;2023-12-29T07:18:52;8.90;99.90
44767;DHT22;30487;48.716;9.272;2023-12-29T07:21:18;9.00;99.90
44767;DHT22;30487;48.716;9.272;2023-12-29T07:23:43;9.00;99.90
44767;DHT22;30487;48.716;9.272;2023-12-29T07:26:09;9.00;99.90
44767;DHT22;30487;48.716;9.272;2023-12-29T07:28:35;9.00;99.90
44767;DHT22;30487;48.716;9.272;2023-12-29T07:31:01;9.00;99.90
44767;DHT22;30487;48.716;9.272;2023-12-29T07:33:27;9.00;99.90
44767;DHT22;30487;48.716;9.272;2023-12-29T07:35:52;9.00;99.90
44767;DHT22;30487;48.716;9.272;2023-12-29T07:38:18;9.00;99.90
44767;DHT22;30487;48.716;9.272;2023-12-29T07:40:44;9.10;99.90
44767;DHT22;30487;48.716;9.272;2023-12-29T07:43:10;9.10;99.90
44767;DHT22;30487;48.716;9.272;2023-12-29T07:45:35;9.10;99.90
44767;DHT22;30487;48.716;9.272;2023-12-29T07:48:04;9.20;99.90
44767;DHT22;30487;48.716;9.272;2023-12-29T07:50:30;9.30;99.90
44767;DHT22;30487;48.716;9.272;2023-12-29T07:52:56;9.30;99.90
44767;DHT22;30487;48.716;9.272;2023-12-29T07:55:21;9.30;99.90
44767;DHT22;30487;48.716;9.272;2023-12-29T07:57:47;9.30;99.90
44767;DHT22;30487;48.716;9.272;2023-12-29T08:00:16;9.40;99.90
44767;DHT22;30487;48.716;9.272;2023-12-29T08:02:42;9.40;99.90
44767;DHT22;30487;48.716;9.272;2023-12-29T08:05:07;9.40;99.90
44767;DHT22;30487;48.716;9.272;2023-12-29T08:07:37;9.40;99.90
44767;DHT22;30487;48.716;9.272;2023-12-29T08:10:04;9.40;99.90
44767;DHT22;30487;48.716;9.272;2023-12-29T08:12:30;9.50;99.90
44767;DHT22;30487;48.716;9.272;2023-12-29T08:14:55;9.50;99.90
44767;DHT22;30487;48.716;9.272;2023-12-29T08:17:22;9.50;99.90
44767;DHT22;30487;48.716;9.272;2023-12-29T08:19:47;9.60;99.90
44767;DHT22;30487;48.716;9.272;2023-12-29T08:22:13;9.70;99.90
44767;DHT22;30487;48.716;9.272;2023-12-29T08:24:40;9.70;99.90
44767;DHT22;30487;48.716;9.272;2023-12-29T08:27:09;9.70;99.90
44767;DHT22;30487;48.716;9.272;2023-12-29T08:29:36;9.80;99.90
44767;DHT22;30487;48.716;9.272;2023-12-29T08:32:01;9.80;99.90
44767;DHT22;30487;48.716;9.272;2023-12-29T08:34:27;9.90;99.90
44767;DHT22;30487;48.716;9.272;2023-12-29T08:36:53;10.00;99.90
44767;DHT22;30487;48.716;9.272;2023-12-29T08:39:18;10.10;99.90
44767;DHT22;30487;48.716;9.272;2023-12-29T08:41:44;10.20;99.90
44767;DHT22;30487;48.716;9.272;2023-12-29T08:44:10;10.30;99.90
44767;DHT22;30487;48.716;9.272;2023-12-29T08:46:35;10.40;99.90
44767;DHT22;30487;48.716;9.272;2023-12-29T08:49:01;10.50;99.90
44767;DHT22;30487;48.716;9.272;2023-12-29T08:51:27;10.60;99.90
44767;DHT22;30487;48.716;9.272;2023-12-29T08:53:52;10.70;99.90
44767;DHT22;30487;48.716;9.272;2023-12-29T08:56:18;10.70;99.90
44767;DHT22;30487;48.716;9.272;2023-12-29T08:58:43;10.70;99.90
44767;DHT22;30487;48.716;9.272;2023-12-29T09:01:09;10.80;99.90
44767;DHT22;30487;48.716;9.272;2023-12-29T09:03:35;10.70;99.90
44767;DHT22;30487;48.716;9.272;2023-12-29T09:06:00;10.70;99.90
44767;DHT22;30487;48.716;9.272;2023-12-29T09:08:27;10.50;99.90
44767;DHT22;30487;48.716;9.272;2023-12-29T09:10:52;10.40;99.90
44767;DHT22;30487;48.716;9.272;2023-12-29T09:13:18;10.40;99.90
44767;DHT22;30487;48.716;9.272;2023-12-29T09:15:48;10.30;99.90
44767;DHT22;30487;48.716;9.272;2023-12-29T09:18:13;10.20;99.90
44767;DHT22;30487;48.716;9.272;2023-12-29T09:20:39;10.20;99.90
44767;DHT22;30487;48.716;9.272;2023-12-29T09:23:05;10.20;99.90
44767;DHT22;30487;48.716;9.272;2023-12-29T09:25:30;10.20;99.90
44767;DHT22;30487;48.716;9.272;2023-12-29T09:27:56;10.20;99.90
44767;DHT22;30487;48.716;9.272;2023-12-29T09:30:21;10.30;99.90
44767;DHT22;30487;48.716;9.272;2023-12-29T09:32:47;10.40;99.90
44767;DHT22;30487;48.716;9.272;2023-12-29T09:35:13;10.50;99.90
44767;DHT22;30487;48.716;9.272;2023-12-29T09:37:38;10.50;99.90
44767;DHT22;30487;48.716;9.272;2023-12-29T09:40:04;10.60;99.90
44767;DHT22;30487;48.716;9.272;2023-12-29T09:42:31;10.60;99.90
44767;DHT22;30487;48.716;9.272;2023-12-29T09:44:57;10.70;99.90
44767;DHT22;30487;48.716;9.272;2023-12-29T09:47:24;10.70;99.90
44767;DHT22;30487;48.716;9.272;2023-12-29T09:49:51;10.70;99.90
44767;DHT22;30487;48.716;9.272;2023-12-29T09:52:20;10.80;99.90
44767;DHT22;30487;48.716;9.272;2023-12-29T09:54:51;11.10;99.90
44767;DHT22;30487;48.716;9.272;2023-12-29T09:57:18;11.20;99.90
44767;DHT22;30487;48.716;9.272;2023-12-29T09:59:44;11.20;99.90
44767;DHT22;30487;48.716;9.272;2023-12-29T10:02:14;11.30;99.90
44767;DHT22;30487;48.716;9.272;2023-12-29T10:04:41;11.10;99.90
44767;DHT22;30487;48.716;9.272;2023-12-29T10:07:08;11.10;99.90
44767;DHT22;30487;48.716;9.272;2023-12-29T10:09:37;11.00;99.90
44767;DHT22;30487;48.716;9.272;2023-12-29T10:12:05;10.90;99.90
44767;DHT22;30487;48.716;9.272;2023-12-29T10:14:49;10.90;99.90
44767;DHT22;30487;48.716;9.272;2023-12-29T10:17:28;10.90;99.90
44767;DHT22;30487;48.716;9.272;2023-12-29T10:20:16;10.90;99.90
44767;DHT22;30487;48.716;9.272;2023-12-29T10:23:11;10.90;99.90
44767;DHT22;30487;48.716;9.272;2023-12-29T10:25:39;11.00;99.90
44767;DHT22;30487;48.716;9.272;2023-12-29T10:28:05;11.10;99.90
44767;DHT22;30487;48.716;9.272;2023-12-29T10:30:31;11.30;99.90
44767;DHT22;30487;48.716;9.272;2023-12-29T10:32:57;11.80;99.90
44767;DHT22;30487;48.716;9.272;2023-12-29T10:35:25;12.40;99.90
44767;DHT22;30487;48.716;9.272;2023-12-29T10:37:51;13.00;99.90
44767;DHT22;30487;48.716;9.272;2023-12-29T10:40:18;13.30;99.90
44767;DHT22;30487;48.716;9.272;2023-12-29T10:42:54;13.70;99.90
44767;DHT22;30487;48.716;9.272;2023-12-29T10:45:21;14.20;99.90
44767;DHT22;30487;48.716;9.272;2023-12-29T10:47:50;14.60;99.90
44767;DHT22;30487;48.716;9.272;2023-12-29T10:50:16;15.20;99.90
44767;DHT22;30487;48.716;9.272;2023-12-29T10:52:41;15.70;99.90
44767;DHT22;30487;48.716;9.272;2023-12-29T10:55:10;16.10;99.90
44767;DHT22;30487;48.716;9.272;2023-12-29T10:57:40;16.60;99.90
44767;DHT22;30487;48.716;9.272;2023-12-29T11:00:06;17.10;99.90
44767;DHT22;30487;48.716;9.272;2023-12-29T11:02:33;17.60;99.90
44767;DHT22;30487;48.716;9.272;2023-12-29T11:05:07;18.20;99.90
44767;DHT22;30487;48.716;9.272;2023-12-29T11:07:34;18.70;99.90
44767;DHT22;30487;48.716;9.272;2023-12-29T11:10:02;19.10;99.90
44767;DHT22;30487;48.716;9.272;2023-12-29T11:12:33;19.50;99.60
44767;DHT22;30487;48.716;9.272;2023-12-29T11:15:06;20.00;98.40
44767;DHT22;30487;48.716;9.272;2023-12-29T11:17:34;20.40;96.60
44767;DHT22;30487;48.716;9.272;2023-12-29T11:20:01;20.50;95.80
44767;DHT22;30487;48.716;9.272;2023-12-29T11:22:28;20.30;95.70
44767;DHT22;30487;48.716;9.272;2023-12-29T11:24:56;20.00;95.10
44767;DHT22;30487;48.716;9.272;2023-12-29T11:27:25;20.00;95.40
44767;DHT22;30487;48.716;9.272;2023-12-29T11:29:52;20.20;94.60
44767;DHT22;30487;48.716;9.272;2023-12-29T11:32:22;20.10;93.80
44767;DHT22;30487;48.716;9.272;2023-12-29T11:34:54;20.10;93.50
44767;DHT22;30487;48.716;9.272;2023-12-29T11:40:41;20.10;93.20
44767;DHT22;30487;48.716;9.272;2023-12-29T11:43:12;20.10;92.40
44767;DHT22;30487;48.716;9.272;2023-12-29T11:45:39;19.40;92.30
44767;DHT22;30487;48.716;9.272;2023-12-29T11:48:05;18.90;92.80
44767;DHT22;30487;48.716;9.272;2023-12-29T11:50:35;18.90;93.20
44767;DHT22;30487;48.716;9.272;2023-12-29T11:53:02;19.20;93.20
44767;DHT22;30487;48.716;9.272;2023-12-29T11:55:30;19.20;93.00
44767;DHT22;30487;48.716;9.272;2023-12-29T11:57:56;19.60;92.70
44767;DHT22;30487;48.716;9.272;2023-12-29T12:00:43;19.40;92.70
44767;DHT22;30487;48.716;9.272;2023-12-29T12:03:24;19.30;92.60
44767;DHT22;30487;48.716;9.272;2023-12-29T12:05:51;19.60;92.20
44767;DHT22;30487;48.716;9.272;2023-12-29T12:08:29;20.00;91.50
44767;DHT22;30487;48.716;9.272;2023-12-29T12:10:56;20.00;90.70
44767;DHT22;30487;48.716;9.272;2023-12-29T12:13:44;19.80;91.00
44767;DHT22;30487;48.716;9.272;2023-12-29T12:19:11;18.30;92.30
44767;DHT22;30487;48.716;9.272;2023-12-29T12:21:37;17.50;93.30
44767;DHT22;30487;48.716;9.272;2023-12-29T12:24:07;17.00;93.70
44767;DHT22;30487;48.716;9.272;2023-12-29T12:26:34;16.70;97.90
44767;DHT22;30487;48.716;9.272;2023-12-29T12:29:00;17.00;97.80
44767;DHT22;30487;48.716;9.272;2023-12-29T12:31:26;17.90;97.60
44767;DHT22;30487;48.716;9.272;2023-12-29T12:33:59;18.70;95.80
44767;DHT22;30487;48.716;9.272;2023-12-29T12:36:27;19.10;94.50
44767;DHT22;30487;48.716;9.272;2023-12-29T12:38:54;18.90;94.10
44767;DHT22;30487;48.716;9.272;2023-12-29T12:41:21;19.00;94.80
44767;DHT22;30487;48.716;9.272;2023-12-29T12:43:57;19.40;94.10
44767;DHT22;30487;48.716;9.272;2023-12-29T12:46:24;19.60;91.80
44767;DHT22;30487;48.716;9.272;2023-12-29T12:48:51;19.60;91.60
44767;DHT22;30487;48.716;9.272;2023-12-29T12:51:19;19.60;91.00
44767;DHT22;30487;48.716;9.272;2023-12-29T12:53:45;19.90;91.00
44767;DHT22;30487;48.716;9.272;2023-12-29T12:56:10;20.50;90.50
44767;DHT22;30487;48.716;9.272;2023-12-29T12:58:36;20.90;89.30
44767;DHT22;30487;48.716;9.272;2023-12-29T13:01:02;21.50;86.10
44767;DHT22;30487;48.716;9.272;2023-12-29T13:03:30;21.80;84.50
44767;DHT22;30487;48.716;9.272;2023-12-29T13:05:57;21.70;83.20
44767;DHT22;30487;48.716;9.272;2023-12-29T13:08:23;21.60;83.40
44767;DHT22;30487;48.716;9.272;2023-12-29T13:10:50;20.50;83.70
44767;DHT22;30487;48.716;9.272;2023-12-29T13:13:16;20.30;84.70
44767;DHT22;30487;48.716;9.272;2023-12-29T13:15:50;20.70;85.70
44767;DHT22;30487;48.716;9.272;2023-12-29T13:18:17;20.60;84.10
44767;DHT22;30487;48.716;9.272;2023-12-29T13:20:47;20.40;83.80
44767;DHT22;30487;48.716;9.272;2023-12-29T13:23:13;20.40;84.90
44767;DHT22;30487;48.716;9.272;2023-12-29T13:25:40;19.90;85.20
44767;DHT22;30487;48.716;9.272;2023-12-29T13:28:08;19.00;86.10
44767;DHT22;30487;48.716;9.272;2023-12-29T13:30:35;18.60;88.10
44767;DHT22;30487;48.716;9.272;2023-12-29T13:33:09;18.60;88.30
44767;DHT22;30487;48.716;9.272;2023-12-29T13:35:47;18.30;87.10
44767;DHT22;30487;48.716;9.272;2023-12-29T13:38:21;17.40;88.10
44767;DHT22;30487;48.716;9.272;2023-12-29T13:40:59;16.50;89.80
44767;DHT22;30487;48.716;9.272;2023-12-29T13:43:27;15.90;90.00
44767;DHT22;30487;48.716;9.272;2023-12-29T13:45:55;15.20;90.50
44767;DHT22;30487;48.716;9.272;2023-12-29T13:48:21;14.70;91.60
44767;DHT22;30487;48.716;9.272;2023-12-29T13:50:48;14.40;92.60
44767;DHT22;30487;48.716;9.272;2023-12-29T13:53:20;14.30;93.20
44767;DHT22;30487;48.716;9.272;2023-12-29T13:55:46;14.30;92.90
44767;DHT22;30487;48.716;9.272;2023-12-29T13:58:12;14.30;92.90
44767;DHT22;30487;48.716;9.272;2023-12-29T14:00:40;14.10;93.20
44767;DHT22;30487;48.716;9.272;2023-12-29T14:03:22;14.00;93.10
44767;DHT22;30487;48.716;9.272;2023-12-29T14:05:54;13.90;93.50
44767;DHT22;30487;48.716;9.272;2023-12-29T14:08:25;13.80;93.80
44767;DHT22;30487;48.716;9.272;2023-12-29T14:10:51;13.70;94.40
44767;DHT22;30487;48.716;9.272;2023-12-29T14:13:17;13.50;94.50
44767;DHT22;30487;48.716;9.272;2023-12-29T14:15:44;13.40;94.70
44767;DHT22;30487;48.716;9.272;2023-12-29T14:20:38;13.20;95.50
44767;DHT22;30487;48.716;9.272;2023-12-29T14:23:06;13.10;95.70
44767;DHT22;30487;48.716;9.272;2023-12-29T14:25:33;13.00;95.90
44767;DHT22;30487;48.716;9.272;2023-12-29T14:28:02;12.90;95.90
44767;DHT22;30487;48.716;9.272;2023-12-29T14:30:27;12.90;96.40
44767;DHT22;30487;48.716;9.272;2023-12-29T14:32:59;12.80;96.60
44767;DHT22;30487;48.716;9.272;2023-12-29T14:35:25;12.70;96.70
44767;DHT22;30487;48.716;9.272;2023-12-29T14:37:50;12.70;97.00
44767;DHT22;30487;48.716;9.272;2023-12-29T14:40:16;12.60;97.20
44767;DHT22;30487;48.716;9.272;2023-12-29T14:42:41;12.60;97.30
44767;DHT22;30487;48.716;9.272;2023-12-29T14:45:08;12.70;97.40
44767;DHT22;30487;48.716;9.272;2023-12-29T14:47:35;12.60;97.30
44767;DHT22;30487;48.716;9.272;2023-12-29T14:50:00;12.60;97.10
44767;DHT22;30487;48.716;9.272;2023-12-29T14:52:26;12.60;96.90
44767;DHT22;30487;48.716;9.272;2023-12-29T14:54:52;12.50;97.00
44767;DHT22;30487;48.716;9.272;2023-12-29T14:57:17;12.40;96.80
44767;DHT22;30487;48.716;9.272;2023-12-29T14:59:43;12.50;97.00
44767;DHT22;30487;48.716;9.272;2023-12-29T15:02:09;12.40;96.60
44767;DHT22;30487;48.716;9.272;2023-12-29T15:04:35;12.40;96.80
44767;DHT22;30487;48.716;9.272;2023-12-29T15:07:02;12.30;96.90
44767;DHT22;30487;48.716;9.272;2023-12-29T15:09:28;12.20;97.20
44767;DHT22;30487;48.716;9.272;2023-12-29T15:11:53;12.20;97.20
44767;DHT22;30487;48.716;9.272;2023-12-29T15:14:19;12.10;97.20
44767;DHT22;30487;48.716;9.272;2023-12-29T15:16:45;12.10;97.40
44767;DHT22;30487;48.716;9.272;2023-12-29T15:19:11;12.00;97.40
44767;DHT22;30487;48.716;9.272;2023-12-29T15:21:38;12.00;97.60
44767;DHT22;30487;48.716;9.272;2023-12-29T15:24:04;11.90;97.50
44767;DHT22;30487;48.716;9.272;2023-12-29T15:26:30;11.90;97.50
44767;DHT22;30487;48.716;9.272;2023-12-29T15:28:56;11.80;97.40
44767;DHT22;30487;48.716;9.272;2023-12-29T15:31:23;11.80;97.50
44767;DHT22;30487;48.716;9.272;2023-12-29T15:33:52;11.80;97.40
44767;DHT22;30487;48.716;9.272;2023-12-29T15:36:18;11.70;97.40
44767;DHT22;30487;48.716;9.272;2023-12-29T15:38:48;11.70;97.40
44767;DHT22;30487;48.716;9.272;2023-12-29T15:41:14;11.60;97.40
44767;DHT22;30487;48.716;9.272;2023-12-29T15:43:40;11.50;97.70
44767;DHT22;30487;48.716;9.272;2023-12-29T15:46:16;11.50;97.80
44767;DHT22;30487;48.716;9.272;2023-12-29T15:48:42;11.40;97.90
44767;DHT22;30487;48.716;9.272;2023-12-29T15:51:08;11.30;98.00
44767;DHT22;30487;48.716;9.272;2023-12-29T15:53:37;11.30;98.10